createdAt,value
2019-04-25T00:00:03.424Z,97.3
2019-04-25T00:01:03.601Z,97.3
2019-04-25T00:02:03.194Z,98
2019-04-25T00:03:03.364Z,98.7
2019-04-25T00:04:03.331Z,100.3
2019-04-25T00:05:03.548Z,100.3
2019-04-25T00:06:03.214Z,100.8
2019-04-25T00:07:03.144Z,101.9
2019-04-25T00:08:03.022Z,101
2019-04-25T00:09:03.417Z,100.1
2019-04-25T00:10:03.312Z,100.8
2019-04-25T00:11:03.596Z,100.1
2019-04-25T00:12:03.046Z,100.1
2019-04-25T00:13:03.829Z,100.1
2019-04-25T00:14:03.225Z,101.2
2019-04-25T00:15:02.799Z,101.7
2019-04-25T00:16:02.963Z,101.2
2019-04-25T00:17:02.767Z,100.5
2019-04-25T00:18:03.022Z,98.4
2019-04-25T00:19:02.945Z,96.8
2019-04-25T00:20:02.776Z,96.8
2019-04-25T00:21:02.757Z,96.1
2019-04-25T00:22:03.615Z,95.9
2019-04-25T00:23:03.366Z,95.4
2019-04-25T00:24:03.478Z,94.5
2019-04-25T00:25:18.260Z,95.6
2019-04-25T00:27:03.818Z,94
2019-04-25T00:28:03.494Z,94
2019-04-25T00:29:04.211Z,94.2
2019-04-25T00:30:03.777Z,94.9
2019-04-25T00:31:03.388Z,95.9
2019-04-25T00:32:03.273Z,97.7
2019-04-25T00:33:03.155Z,98
2019-04-25T00:34:03.274Z,98.4
2019-04-25T00:35:03.567Z,97
2019-04-25T00:36:04.063Z,96.6
2019-04-25T00:37:03.470Z,96.6
2019-04-25T00:38:03.173Z,96.6
2019-04-25T00:39:04.035Z,95.9
2019-04-25T00:40:03.160Z,95.4
2019-04-25T00:41:03.429Z,95.6
2019-04-25T00:42:03.085Z,95.2
2019-04-25T00:43:03.671Z,94.2
2019-04-25T00:44:02.959Z,94
2019-04-25T00:45:03.201Z,93.3
2019-04-25T00:46:04.356Z,93.3
2019-04-25T00:47:02.901Z,93.5
2019-04-25T00:48:05.027Z,94.9
2019-04-25T00:49:03.801Z,96.6
2019-04-25T00:50:03.772Z,96.8
2019-04-25T00:51:03.803Z,98.2
2019-04-25T00:52:03.457Z,99.4
2019-04-25T00:53:03.570Z,98.2
2019-04-25T00:54:03.684Z,98.4
2019-04-25T00:55:03.628Z,98.7
2019-04-25T00:56:03.015Z,97.5
2019-04-25T00:57:03.239Z,98.2
2019-04-25T00:58:03.607Z,98.2
2019-04-25T00:59:03.136Z,98
2019-04-25T01:00:03.058Z,97
2019-04-25T01:02:02.188Z,96.8
2019-04-25T01:04:03.070Z,94.2
2019-04-25T01:05:03.044Z,94.9
2019-04-25T01:06:04.084Z,94.9
2019-04-25T01:07:03.697Z,94.7
2019-04-25T01:08:03.685Z,94.7
2019-04-25T01:09:03.601Z,95.6
2019-04-25T01:10:03.675Z,96.1
2019-04-25T01:11:03.605Z,96.8
2019-04-25T01:12:04.324Z,96.6
2019-04-25T01:13:03.579Z,96.6
2019-04-25T01:14:03.619Z,95.9
2019-04-25T01:15:03.732Z,95.9
2019-04-25T01:16:04.360Z,97
2019-04-25T01:17:03.381Z,98.4
2019-04-25T01:18:03.344Z,99.8
2019-04-25T01:19:03.761Z,99.8
2019-04-25T01:20:04.384Z,100.1
2019-04-25T01:21:04.672Z,100.3
2019-04-25T01:22:04.046Z,100.5
2019-04-25T01:23:03.990Z,100.8
2019-04-25T01:24:04.556Z,101.5
2019-04-25T01:25:04.051Z,100.5
2019-04-25T01:26:03.590Z,99.8
2019-04-25T01:27:05.589Z,99.8
2019-04-25T01:28:03.439Z,99.4
2019-04-25T01:29:03.872Z,99.1
2019-04-25T01:30:06.335Z,99.4
2019-04-25T01:31:04.054Z,100.5
2019-04-25T01:32:03.701Z,99.8
2019-04-25T01:33:03.750Z,99.1
2019-04-25T01:34:04.544Z,97.3
2019-04-25T01:35:04.291Z,97
2019-04-25T01:36:03.725Z,96.8
2019-04-25T01:37:04.397Z,96.8
2019-04-25T01:38:03.889Z,96.3
2019-04-25T01:39:04.526Z,95.6
2019-04-25T01:40:04.392Z,95.4
2019-04-25T01:41:03.629Z,97.3
2019-04-25T01:42:05.537Z,98.2
2019-04-25T01:43:03.923Z,98.4
2019-04-25T01:44:04.807Z,98.9
2019-04-25T01:45:04.283Z,98
2019-04-25T01:46:03.682Z,98
2019-04-25T01:47:04.413Z,98.2
2019-04-25T01:48:03.774Z,97.5
2019-04-25T01:49:04.525Z,97.3
2019-04-25T01:50:04.182Z,98
2019-04-25T01:51:04.340Z,97.5
2019-04-25T01:52:03.770Z,96.3
2019-04-25T01:53:03.752Z,96.8
2019-04-25T01:54:04.350Z,96.3
2019-04-25T01:55:05.814Z,96.1
2019-04-25T01:56:08.131Z,96.3
2019-04-25T01:57:04.624Z,95.6
2019-04-25T01:58:04.140Z,96.3
2019-04-25T01:59:04.172Z,96.8
2019-04-25T02:00:04.226Z,97.3
2019-04-25T02:01:04.834Z,97
2019-04-25T02:02:07.006Z,97.7
2019-04-25T02:03:04.740Z,97
2019-04-25T02:04:04.593Z,96.8
2019-04-25T02:05:05.335Z,95.9
2019-04-25T02:06:05.308Z,95.6
2019-04-25T02:07:04.603Z,95.6
2019-04-25T02:08:07.260Z,96.1
2019-04-25T02:09:05.450Z,95.9
2019-04-25T02:10:03.987Z,96.3
2019-04-25T02:11:04.915Z,95.6
2019-04-25T02:12:05.090Z,96.3
2019-04-25T02:13:04.096Z,96.3
2019-04-25T02:14:05.517Z,97.7
2019-04-25T02:15:06.482Z,96.8
2019-04-25T02:16:05.551Z,96.1
2019-04-25T02:17:04.794Z,95.9
2019-04-25T02:18:04.048Z,95.4
2019-04-25T02:19:04.274Z,95.9
2019-04-25T02:20:04.440Z,95.4
2019-04-25T02:21:04.745Z,95.2
2019-04-25T02:22:04.253Z,94.7
2019-04-25T02:23:04.411Z,94.9
2019-04-25T02:24:06.021Z,94.2
2019-04-25T02:25:04.785Z,93.8
2019-04-25T02:26:18.830Z,94
2019-04-25T02:28:05.962Z,97.5
2019-04-25T02:29:04.931Z,98.7
2019-04-25T02:30:07.325Z,98.4
2019-04-25T02:31:09.131Z,96.1
2019-04-25T02:32:09.465Z,96.3
2019-04-25T02:33:09.542Z,96.6
2019-04-25T02:34:09.018Z,97.7
2019-04-25T02:35:10.175Z,98.7
2019-04-25T02:36:09.157Z,98.4
2019-04-25T02:37:09.922Z,97.7
2019-04-25T02:38:09.266Z,97
2019-04-25T02:39:09.383Z,98.4
2019-04-25T02:40:09.424Z,98.9
2019-04-25T02:41:09.361Z,97
2019-04-25T02:42:09.027Z,97.3
2019-04-25T02:43:08.527Z,96.6
2019-04-25T02:44:10.432Z,97
2019-04-25T02:45:08.870Z,98.9
2019-04-25T02:46:08.459Z,98.7
2019-04-25T02:47:08.651Z,98.9
2019-04-25T02:48:07.382Z,98.7
2019-04-25T02:49:09.955Z,97.7
2019-04-25T02:50:09.369Z,95.9
2019-04-25T02:51:07.851Z,96.6
2019-04-25T02:52:18.314Z,97.3
2019-04-25T02:53:07.667Z,97.7
2019-04-25T02:54:15.578Z,97.7
2019-04-25T02:55:36.764Z,98.2
2019-04-25T02:56:38.767Z,98.2
2019-04-25T02:58:10.442Z,96.1
2019-04-25T02:59:09.562Z,95.4
2019-04-25T03:00:09.036Z,94.9
2019-04-25T03:01:26.453Z,95.4
2019-04-25T03:03:08.829Z,96.1
2019-04-25T03:04:13.823Z,96.8
2019-04-25T03:05:10.398Z,97.3
2019-04-25T03:06:10.155Z,96.6
2019-04-25T03:07:11.832Z,96.8
2019-04-25T03:08:10.847Z,96.8
2019-04-25T03:09:10.152Z,96.8
2019-04-25T03:10:10.061Z,96.3
2019-04-25T03:11:09.675Z,97.3
2019-04-25T03:12:09.674Z,97.3
2019-04-25T03:13:15.128Z,98
2019-04-25T03:14:10.583Z,96.1
2019-04-25T03:15:10.506Z,96.3
2019-04-25T03:16:11.323Z,96.3
2019-04-25T03:17:10.148Z,95.6
2019-04-25T03:18:15.390Z,97.7
2019-04-25T03:19:09.525Z,98.2
2019-04-25T03:20:14.865Z,97.3
2019-04-25T03:21:17.818Z,96.8
2019-04-25T03:22:15.298Z,96.6
2019-04-25T03:23:10.910Z,96.3
2019-04-25T03:24:17.180Z,98
2019-04-25T03:25:17.824Z,98.9
2019-04-25T03:26:07.657Z,98.4
2019-04-25T03:27:07.483Z,96.8
2019-04-25T03:28:07.254Z,95.6
2019-04-25T03:29:07.335Z,94.2
2019-04-25T03:30:18.164Z,93.5
2019-04-25T03:31:27.254Z,94.7
2019-04-25T03:32:20.321Z,94
2019-04-25T03:33:20.123Z,94.5
2019-04-25T03:34:21.034Z,95.2
2019-04-25T03:35:07.277Z,94.2
2019-04-25T03:36:08.002Z,93.8
2019-04-25T03:37:07.790Z,93.8
2019-04-25T03:38:06.544Z,93.1
2019-04-25T03:39:05.445Z,93.5
2019-04-25T03:40:07.995Z,94.2
2019-04-25T03:41:07.158Z,94.2
2019-04-25T03:42:06.382Z,92.6
2019-04-25T03:43:07.172Z,93.1
2019-04-25T03:44:06.614Z,92.4
2019-04-25T03:45:07.234Z,91.9
2019-04-25T03:46:07.134Z,90.5
2019-04-25T03:47:09.789Z,90.7
2019-04-25T03:48:07.589Z,91.2
2019-04-25T03:49:06.210Z,91.7
2019-04-25T03:50:08.359Z,93.1
2019-04-25T03:51:08.080Z,92.8
2019-04-25T03:52:06.551Z,92.4
2019-04-25T03:53:06.611Z,93.1
2019-04-25T03:54:10.665Z,93.8
2019-04-25T03:55:08.787Z,94
2019-04-25T03:56:08.775Z,94.7
2019-04-25T03:57:08.604Z,96.3
2019-04-25T03:58:12.538Z,97
2019-04-25T03:59:07.342Z,98.2
2019-04-25T04:00:08.792Z,98.4
2019-04-25T04:01:09.714Z,99.1
2019-04-25T04:02:09.186Z,98.2
2019-04-25T04:03:09.126Z,99.1
2019-04-25T04:04:09.118Z,98.9
2019-04-25T04:05:09.626Z,98.4
2019-04-25T04:06:09.935Z,99.1
2019-04-25T04:07:14.012Z,98.7
2019-04-25T04:08:06.580Z,98.4
2019-04-25T04:09:08.040Z,98
2019-04-25T04:10:07.732Z,97.5
2019-04-25T04:11:08.798Z,96.8
2019-04-25T04:12:06.493Z,96.3
2019-04-25T04:13:08.557Z,96.3
2019-04-25T04:14:08.056Z,96.3
2019-04-25T04:15:07.159Z,95.9
2019-04-25T04:16:06.612Z,95.4
2019-04-25T04:17:08.838Z,98.2
2019-04-25T04:18:07.290Z,95.6
2019-04-25T04:19:07.045Z,94.2
2019-04-25T04:20:06.896Z,95.9
2019-04-25T04:21:03.648Z,97.5
2019-04-25T04:22:03.448Z,98.4
2019-04-25T04:23:03.406Z,97.7
2019-04-25T04:24:04.293Z,95.9
2019-04-25T04:25:04.000Z,94.9
2019-04-25T04:26:03.561Z,95.6
2019-04-25T04:27:10.819Z,95.4
2019-04-25T04:28:03.995Z,96.3
2019-04-25T04:29:07.574Z,96.6
2019-04-25T04:30:04.418Z,96.1
2019-04-25T04:31:03.910Z,95.2
2019-04-25T04:32:03.273Z,95.6
2019-04-25T04:33:03.839Z,96.6
2019-04-25T04:34:04.019Z,96.1
2019-04-25T04:35:03.772Z,97.3
2019-04-25T04:36:04.128Z,98.7
2019-04-25T04:37:04.005Z,99.4
2019-04-25T04:38:04.495Z,100.3
2019-04-25T04:39:04.138Z,99.4
2019-04-25T04:40:03.861Z,98.9
2019-04-25T04:41:04.204Z,99.1
2019-04-25T04:42:04.075Z,100.5
2019-04-25T04:43:04.660Z,99.8
2019-04-25T04:44:04.383Z,101
2019-04-25T04:45:03.881Z,101.5
2019-04-25T04:46:04.208Z,102.6
2019-04-25T04:47:04.341Z,101.5
2019-04-25T04:48:03.518Z,101.2
2019-04-25T04:49:04.181Z,100.5
2019-04-25T04:50:04.157Z,100.8
2019-04-25T04:51:03.682Z,101
2019-04-25T04:52:06.772Z,100.8
2019-04-25T04:53:04.093Z,99.6
2019-04-25T04:54:03.724Z,99.1
2019-04-25T04:55:17.183Z,99.4
2019-04-25T04:56:04.452Z,99.1
2019-04-25T04:57:36.401Z,99.6
2019-04-25T04:59:03.987Z,100.1
2019-04-25T05:00:03.929Z,99.8
2019-04-25T05:01:03.881Z,99.8
2019-04-25T05:02:03.738Z,100.1
2019-04-25T05:03:04.711Z,98
2019-04-25T05:04:04.197Z,98.7
2019-04-25T05:05:03.885Z,98.4
2019-04-25T05:06:03.920Z,98.2
2019-04-25T05:07:03.847Z,99.1
2019-04-25T05:08:04.054Z,99.1
2019-04-25T05:09:03.565Z,99.6
2019-04-25T05:10:03.571Z,100.1
2019-04-25T05:11:04.264Z,100.8
2019-04-25T05:12:04.316Z,101.2
2019-04-25T05:13:04.550Z,101.2
2019-04-25T05:14:04.235Z,101.2
2019-04-25T05:15:03.981Z,102.4
2019-04-25T05:16:03.469Z,101.9
2019-04-25T05:17:04.561Z,99.8
2019-04-25T05:18:04.270Z,101.5
2019-04-25T05:19:03.928Z,103.1
2019-04-25T05:20:03.755Z,102.2
2019-04-25T05:21:04.459Z,101.5
2019-04-25T05:22:03.858Z,101.5
2019-04-25T05:23:03.687Z,101.9
2019-04-25T05:24:04.363Z,103.3
2019-04-25T05:25:03.867Z,104.3
2019-04-25T05:26:04.600Z,104.3
2019-04-25T05:27:04.070Z,105.7
2019-04-25T05:28:05.613Z,106.6
2019-04-25T05:29:03.893Z,105.9
2019-04-25T05:30:04.223Z,107.1
2019-04-25T05:31:03.651Z,107.8
2019-04-25T05:32:04.477Z,108.2
2019-04-25T05:33:04.212Z,107.3
2019-04-25T05:34:03.939Z,106.4
2019-04-25T05:35:03.624Z,106.1
2019-04-25T05:36:06.161Z,105.9
2019-04-25T05:37:04.067Z,106.4
2019-04-25T05:38:03.668Z,106.4
2019-04-25T05:39:04.255Z,106.1
2019-04-25T05:40:05.853Z,106.1
2019-04-25T05:41:04.282Z,105.7
2019-04-25T05:42:07.897Z,105.9
2019-04-25T05:43:03.549Z,106.6
2019-04-25T05:44:04.690Z,105.7
2019-04-25T05:45:04.665Z,105
2019-04-25T05:46:03.611Z,105
2019-04-25T05:47:04.381Z,106.1
2019-04-25T05:48:06.279Z,106.1
2019-04-25T05:49:05.404Z,106.8
2019-04-25T05:50:04.359Z,106.6
2019-04-25T05:51:04.213Z,105.2
2019-04-25T05:52:04.284Z,105.7
2019-04-25T05:53:04.563Z,106.1
2019-04-25T05:54:04.395Z,105.9
2019-04-25T05:55:04.186Z,105.4
2019-04-25T05:56:04.412Z,105
2019-04-25T05:57:03.955Z,104
2019-04-25T05:58:04.217Z,103.8
2019-04-25T05:59:05.752Z,104.3
2019-04-25T06:00:03.880Z,104
2019-04-25T06:01:03.752Z,104
2019-04-25T06:02:04.144Z,105
2019-04-25T06:03:03.989Z,106.8
2019-04-25T06:04:05.741Z,106.6
2019-04-25T06:05:03.781Z,107.1
2019-04-25T06:06:03.807Z,108.5
2019-04-25T06:07:02.843Z,107.1
2019-04-25T06:08:04.696Z,106.8
2019-04-25T06:09:04.372Z,107.1
2019-04-25T06:10:04.308Z,106.8
2019-04-25T06:11:04.296Z,107.3
2019-04-25T06:12:05.014Z,106.6
2019-04-25T06:13:03.671Z,106.8
2019-04-25T06:14:03.709Z,106.8
2019-04-25T06:15:03.708Z,106.4
2019-04-25T06:16:03.803Z,106.6
2019-04-25T06:17:03.704Z,105.2
2019-04-25T06:18:04.109Z,104
2019-04-25T06:19:22.409Z,102.6
2019-04-25T06:21:03.318Z,102.6
2019-04-25T06:22:03.494Z,102.9
2019-04-25T06:23:03.473Z,103.3
2019-04-25T06:24:02.037Z,102.4
2019-04-25T06:25:16.700Z,102.9
2019-04-25T06:26:40.137Z,104.5
2019-04-25T06:28:03.989Z,101.9
2019-04-25T06:29:03.516Z,104.3
2019-04-25T06:30:04.722Z,104.3
2019-04-25T06:31:10.670Z,103.6
2019-04-25T06:32:08.945Z,103.1
2019-04-25T06:33:03.540Z,103.6
2019-04-25T06:34:04.805Z,104
2019-04-25T06:35:04.389Z,103.3
2019-04-25T06:36:04.433Z,103.6
2019-04-25T06:37:06.500Z,103.8
2019-04-25T06:38:03.850Z,102.6
2019-04-25T06:39:04.314Z,103.3
2019-04-25T06:40:05.355Z,103.1
2019-04-25T06:41:03.795Z,103.3
2019-04-25T06:42:04.230Z,102.6
2019-04-25T06:43:03.628Z,104
2019-04-25T06:44:04.246Z,104.5
2019-04-25T06:45:03.800Z,103.6
2019-04-25T06:46:04.100Z,103.8
2019-04-25T06:47:03.651Z,102.9
2019-04-25T06:48:04.184Z,103.1
2019-04-25T06:49:03.757Z,104
2019-04-25T06:50:04.506Z,102.6
2019-04-25T06:51:03.765Z,103.6
2019-04-25T06:52:04.398Z,104.7
2019-04-25T06:53:05.449Z,103.3
2019-04-25T06:54:03.612Z,104.3
2019-04-25T06:55:03.624Z,104.7
2019-04-25T06:56:03.754Z,104.5
2019-04-25T06:57:04.737Z,104.7
2019-04-25T06:58:14.796Z,103.3
2019-04-25T06:59:03.692Z,103.3
2019-04-25T07:00:04.732Z,103.6
2019-04-25T07:01:03.681Z,103.6
2019-04-25T07:02:04.469Z,103.3
2019-04-25T07:03:04.519Z,103.6
2019-04-25T07:04:04.290Z,102.6
2019-04-25T07:05:04.206Z,104.5
2019-04-25T07:06:03.727Z,104.5
2019-04-25T07:07:15.146Z,104.5
2019-04-25T07:08:03.704Z,103.6
2019-04-25T07:09:03.454Z,102.6
2019-04-25T07:10:04.071Z,101.9
2019-04-25T07:11:04.119Z,101.2
2019-04-25T07:12:03.850Z,101.2
2019-04-25T07:13:04.521Z,99.8
2019-04-25T07:14:04.391Z,100.1
2019-04-25T07:15:04.123Z,100.1
2019-04-25T07:16:04.882Z,100.3
2019-04-25T07:17:04.613Z,103.3
2019-04-25T07:18:04.063Z,103.1
2019-04-25T07:19:04.783Z,104
2019-04-25T07:20:04.115Z,102.9
2019-04-25T07:21:03.584Z,103.1
2019-04-25T07:22:04.160Z,101.9
2019-04-25T07:23:03.960Z,102.4
2019-04-25T07:24:04.381Z,102.9
2019-04-25T07:25:03.873Z,101.7
2019-04-25T07:26:03.957Z,100.5
2019-04-25T07:27:04.018Z,101.5
2019-04-25T07:28:03.891Z,100.5
2019-04-25T07:29:05.525Z,99.4
2019-04-25T07:30:04.327Z,99.6
2019-04-25T07:31:03.863Z,100.1
2019-04-25T07:32:06.151Z,99.8
2019-04-25T07:33:04.039Z,98
2019-04-25T07:34:03.521Z,97.3
2019-04-25T07:35:03.896Z,98.4
2019-04-25T07:36:04.501Z,98
2019-04-25T07:37:03.654Z,96.6
2019-04-25T07:38:04.199Z,98
2019-04-25T07:39:11.065Z,96.6
2019-04-25T07:40:04.314Z,96.8
2019-04-25T07:41:04.019Z,96.3
2019-04-25T07:42:04.359Z,95.9
2019-04-25T07:43:05.028Z,95.2
2019-04-25T07:44:04.471Z,94.7
2019-04-25T07:45:04.640Z,95.6
2019-04-25T07:46:03.720Z,95.2
2019-04-25T07:47:04.289Z,94.7
2019-04-25T07:48:04.321Z,94.7
2019-04-25T07:49:03.874Z,94.9
2019-04-25T07:50:04.237Z,95.2
2019-04-25T07:51:03.949Z,95.4
2019-04-25T07:52:03.856Z,94.7
2019-04-25T07:53:05.928Z,96.3
2019-04-25T07:54:04.754Z,94.7
2019-04-25T07:55:03.968Z,94.2
2019-04-25T07:56:04.463Z,94.2
2019-04-25T07:57:03.902Z,92.8
2019-04-25T07:58:03.422Z,93.1
2019-04-25T07:59:04.057Z,91.7
2019-04-25T08:00:04.951Z,92.4
2019-04-25T08:01:04.000Z,93.5
2019-04-25T08:02:03.620Z,95.2
2019-04-25T08:03:04.262Z,93.5
2019-04-25T08:04:03.753Z,92.4
2019-04-25T08:05:04.492Z,89.8
2019-04-25T08:06:05.434Z,89.1
2019-04-25T08:07:04.344Z,89.1
2019-04-25T08:08:03.799Z,89.8
2019-04-25T08:09:04.295Z,91.9
2019-04-25T08:10:04.267Z,92.6
2019-04-25T08:11:04.347Z,93.1
2019-04-25T08:12:03.668Z,92.8
2019-04-25T08:13:05.211Z,94.5
2019-04-25T08:14:03.702Z,95.2
2019-04-25T08:15:04.316Z,95.2
2019-04-25T08:16:03.641Z,94.7
2019-04-25T08:17:03.932Z,93.5
2019-04-25T08:18:04.322Z,94
2019-04-25T08:19:04.298Z,94
2019-04-25T08:20:04.184Z,94.9
2019-04-25T08:21:03.752Z,94.7
2019-04-25T08:22:03.901Z,95.4
2019-04-25T08:23:04.521Z,94.2
2019-04-25T08:24:04.994Z,94.5
2019-04-25T08:25:03.861Z,96.1
2019-04-25T08:26:04.363Z,95.9
2019-04-25T08:27:03.588Z,96.1
2019-04-25T08:28:04.049Z,94.7
2019-04-25T08:29:03.894Z,94
2019-04-25T08:30:04.559Z,95.2
2019-04-25T08:31:03.797Z,94.7
2019-04-25T08:32:04.800Z,93.8
2019-04-25T08:33:04.225Z,93.8
2019-04-25T08:34:03.918Z,96.1
2019-04-25T08:35:04.021Z,95.4
2019-04-25T08:36:09.633Z,96.3
2019-04-25T08:37:04.295Z,97.3
2019-04-25T08:38:06.182Z,96.8
2019-04-25T08:39:03.739Z,98.4
2019-04-25T08:40:04.231Z,97.7
2019-04-25T08:41:04.405Z,99.1
2019-04-25T08:42:03.721Z,100.1
2019-04-25T08:43:03.797Z,98.4
2019-04-25T08:44:04.278Z,99.1
2019-04-25T08:45:03.961Z,98.7
2019-04-25T08:46:04.448Z,98
2019-04-25T08:47:04.766Z,100.1
2019-04-25T08:48:03.878Z,99.8
2019-04-25T08:49:06.675Z,99.1
2019-04-25T08:50:03.893Z,100.8
2019-04-25T08:51:03.895Z,101.2
2019-04-25T08:52:04.375Z,99.8
2019-04-25T08:53:04.164Z,99.8
2019-04-25T08:54:04.035Z,100.8
2019-04-25T08:55:04.541Z,100.3
2019-04-25T08:56:04.028Z,100.8
2019-04-25T08:57:04.590Z,103.1
2019-04-25T08:58:03.892Z,103.8
2019-04-25T08:59:08.325Z,103.6
2019-04-25T09:00:06.379Z,102.4
2019-04-25T09:01:04.346Z,100.3
2019-04-25T09:02:03.721Z,98.4
2019-04-25T09:03:06.185Z,99.6
2019-04-25T09:04:05.361Z,101
2019-04-25T09:05:04.363Z,101.5
2019-04-25T09:06:03.937Z,101
2019-04-25T09:07:05.728Z,101.9
2019-04-25T09:08:04.385Z,101.9
2019-04-25T09:09:03.937Z,101.7
2019-04-25T09:10:03.802Z,102.2
2019-04-25T09:11:03.677Z,103.6
2019-04-25T09:12:04.392Z,104.3
2019-04-25T09:13:05.026Z,102.6
2019-04-25T09:14:03.894Z,101.9
2019-04-25T09:15:04.347Z,102.9
2019-04-25T09:16:03.805Z,104.3
2019-04-25T09:17:03.470Z,103.6
2019-04-25T09:18:04.251Z,103.1
2019-04-25T09:19:04.920Z,102.4
2019-04-25T09:20:04.218Z,102.2
2019-04-25T09:21:04.149Z,101.7
2019-04-25T09:22:03.555Z,101.5
2019-04-25T09:23:05.229Z,102.2
2019-04-25T09:24:03.777Z,101.2
2019-04-25T09:25:04.037Z,100.5
2019-04-25T09:26:05.823Z,101
2019-04-25T09:27:03.905Z,101
2019-04-25T09:28:04.603Z,102.2
2019-04-25T09:29:20.212Z,103.3
2019-04-25T09:31:04.183Z,102.6
2019-04-25T09:32:03.972Z,103.8
2019-04-25T09:33:04.888Z,104.5
2019-04-25T09:34:04.295Z,102.6
2019-04-25T09:35:04.036Z,101.5
2019-04-25T09:36:07.125Z,100.5
2019-04-25T09:37:03.410Z,101.5
2019-04-25T09:38:03.647Z,101.9
2019-04-25T09:39:03.976Z,101.9
2019-04-25T09:40:04.466Z,102.4
2019-04-25T09:41:04.037Z,102.9
2019-04-25T09:42:04.594Z,102.6
2019-04-25T09:43:03.811Z,103.6
2019-04-25T09:44:04.758Z,102.4
2019-04-25T09:45:04.125Z,102.6
2019-04-25T09:46:03.870Z,103.1
2019-04-25T09:47:03.702Z,103.1
2019-04-25T09:48:04.877Z,104.5
2019-04-25T09:49:04.469Z,104.5
2019-04-25T09:50:04.374Z,104.7
2019-04-25T09:51:05.869Z,104.5
2019-04-25T09:52:03.686Z,104.5
2019-04-25T09:53:04.747Z,103.6
2019-04-25T09:54:03.748Z,103.3
2019-04-25T09:55:03.720Z,104.7
2019-04-25T09:56:04.377Z,106.1
2019-04-25T09:57:04.003Z,104.7
2019-04-25T09:58:04.363Z,103.8
2019-04-25T09:59:03.945Z,104.5
2019-04-25T10:00:03.921Z,105.4
2019-04-25T10:01:06.004Z,107.5
2019-04-25T10:02:03.355Z,108.2
2019-04-25T10:03:04.827Z,108
2019-04-25T10:04:03.719Z,108
2019-04-25T10:05:04.216Z,108
2019-04-25T10:06:03.532Z,108
2019-04-25T10:07:03.674Z,107.3
2019-04-25T10:08:03.890Z,107.8
2019-04-25T10:09:03.036Z,106.6
2019-04-25T10:10:04.002Z,105.7
2019-04-25T10:11:04.256Z,104.7
2019-04-25T10:12:03.568Z,103.8
2019-04-25T10:13:06.854Z,103.8
2019-04-25T10:14:04.800Z,103.3
2019-04-25T10:15:04.779Z,103.3
2019-04-25T10:16:03.668Z,101.9
2019-04-25T10:17:04.066Z,101.9
2019-04-25T10:18:03.399Z,102.4
2019-04-25T10:19:03.649Z,103.6
2019-04-25T10:20:03.527Z,104
2019-04-25T10:21:04.514Z,105
2019-04-25T10:22:03.660Z,105
2019-04-25T10:23:03.557Z,105.4
2019-04-25T10:24:03.850Z,106.4
2019-04-25T10:25:03.580Z,106.1
2019-04-25T10:26:04.074Z,105.9
2019-04-25T10:27:03.946Z,105.7
2019-04-25T10:28:04.568Z,105.2
2019-04-25T10:29:03.480Z,105.2
2019-04-25T10:30:26.079Z,105.4
2019-04-25T10:32:04.551Z,103.6
2019-04-25T10:33:04.297Z,102.9
2019-04-25T10:34:04.059Z,102.6
2019-04-25T10:35:03.965Z,103.8
2019-04-25T10:36:04.419Z,104.7
2019-04-25T10:37:03.527Z,103.8
2019-04-25T10:38:03.782Z,103.3
2019-04-25T10:39:11.835Z,103.6
2019-04-25T10:40:04.552Z,103.6
2019-04-25T10:41:04.508Z,102.6
2019-04-25T10:42:03.903Z,102.4
2019-04-25T10:43:04.229Z,102.6
2019-04-25T10:44:03.565Z,102.9
2019-04-25T10:45:04.427Z,103.1
2019-04-25T10:46:05.562Z,103.1
2019-04-25T10:47:03.442Z,103.8
2019-04-25T10:48:04.484Z,102.9
2019-04-25T10:49:04.683Z,101.9
2019-04-25T10:50:04.060Z,100.3
2019-04-25T10:51:04.421Z,99.8
2019-04-25T10:52:03.071Z,101.7
2019-04-25T10:53:04.283Z,101.7
2019-04-25T10:54:04.414Z,101.7
2019-04-25T10:55:04.572Z,101.5
2019-04-25T10:56:06.293Z,98.4
2019-04-25T10:57:04.143Z,98.4
2019-04-25T10:58:04.135Z,100.5
2019-04-25T10:59:04.458Z,100.1
2019-04-25T11:00:09.910Z,100.1
2019-04-25T11:01:03.120Z,100.1
2019-04-25T11:02:04.219Z,98.4
2019-04-25T11:03:04.128Z,97
2019-04-25T11:04:05.029Z,98.7
2019-04-25T11:05:03.866Z,98.7
2019-04-25T11:06:04.227Z,100.1
2019-04-25T11:07:04.016Z,100.1
2019-04-25T11:08:04.543Z,100.3
2019-04-25T11:09:03.786Z,100.1
2019-04-25T11:10:03.884Z,99.4
2019-04-25T11:11:04.018Z,98.4
2019-04-25T11:12:03.810Z,100.3
2019-04-25T11:13:04.274Z,100.3
2019-04-25T11:14:03.609Z,100.3
2019-04-25T11:15:04.236Z,99.4
2019-04-25T11:16:03.782Z,101
2019-04-25T11:17:03.441Z,100.8
2019-04-25T11:18:04.481Z,100.8
2019-04-25T11:19:03.478Z,99.8
2019-04-25T11:20:05.785Z,100.1
2019-04-25T11:21:06.343Z,99.1
2019-04-25T11:22:04.210Z,99.4
2019-04-25T11:23:04.095Z,98.4
2019-04-25T11:24:04.304Z,98.4
2019-04-25T11:25:03.512Z,98.4
2019-04-25T11:26:04.129Z,97.7
2019-04-25T11:27:04.559Z,98
2019-04-25T11:28:04.108Z,97.7
2019-04-25T11:29:02.929Z,97.7
2019-04-25T11:30:11.812Z,98
2019-04-25T11:31:05.434Z,100.1
2019-04-25T11:32:02.900Z,99.4
2019-04-25T11:33:03.940Z,99.8
2019-04-25T11:34:03.875Z,100.1
2019-04-25T11:35:05.299Z,99.4
2019-04-25T11:36:04.425Z,99.4
2019-04-25T11:37:06.082Z,99.1
2019-04-25T11:38:03.800Z,99.1
2019-04-25T11:39:04.354Z,99.1
2019-04-25T11:40:04.635Z,98.2
2019-04-25T11:41:04.146Z,97.7
2019-04-25T11:42:03.525Z,97.7
2019-04-25T11:43:04.514Z,98.2
2019-04-25T11:44:03.702Z,98.4
2019-04-25T11:45:06.210Z,98.4
2019-04-25T11:46:05.135Z,99.1
2019-04-25T11:47:08.916Z,97.7
2019-04-25T11:48:02.991Z,98
2019-04-25T11:49:04.651Z,98
2019-04-25T11:50:04.147Z,99.4
2019-04-25T11:51:03.866Z,99.1
2019-04-25T11:52:05.493Z,98.2
2019-04-25T11:53:05.006Z,98.2
2019-04-25T11:54:03.825Z,98.4
2019-04-25T11:55:04.785Z,97
2019-04-25T11:56:03.949Z,98.4
2019-04-25T11:57:03.811Z,97.3
2019-04-25T11:58:03.962Z,96.1
2019-04-25T11:59:04.770Z,97.3
2019-04-25T12:00:04.541Z,97.3
2019-04-25T12:01:05.317Z,97.5
2019-04-25T12:02:04.900Z,97.5
2019-04-25T12:03:03.932Z,100.5
2019-04-25T12:04:04.299Z,99.4
2019-04-25T12:05:04.258Z,98.2
2019-04-25T12:06:03.814Z,98.2
2019-04-25T12:07:09.690Z,98.7
2019-04-25T12:08:04.360Z,98
2019-04-25T12:09:04.298Z,99.6
2019-04-25T12:10:04.009Z,98.4
2019-04-25T12:11:03.112Z,100.3
2019-04-25T12:12:06.038Z,100.3
2019-04-25T12:13:03.142Z,100.3
2019-04-25T12:14:04.540Z,100.8
2019-04-25T12:15:04.668Z,102.6
2019-04-25T12:16:04.344Z,102.6
2019-04-25T12:17:04.076Z,101.2
2019-04-25T12:18:04.876Z,101
2019-04-25T12:19:05.084Z,101.9
2019-04-25T12:20:04.186Z,100.5
2019-04-25T12:21:04.473Z,100.1
2019-04-25T12:22:04.322Z,98.7
2019-04-25T12:23:10.822Z,98.7
2019-04-25T12:24:06.234Z,98.9
2019-04-25T12:25:04.905Z,98.7
2019-04-25T12:26:04.140Z,96.8
2019-04-25T12:27:04.564Z,98.4
2019-04-25T12:28:05.927Z,97.7
2019-04-25T12:29:04.677Z,99.6
2019-04-25T12:30:05.777Z,100.1
2019-04-25T12:31:03.635Z,98.2
2019-04-25T12:32:04.308Z,98.2
2019-04-25T12:33:03.582Z,99.6
2019-04-25T12:34:03.745Z,100.3
2019-04-25T12:35:06.422Z,102.6
2019-04-25T12:36:03.696Z,102.6
2019-04-25T12:37:04.214Z,103.1
2019-04-25T12:38:03.777Z,104.3
2019-04-25T12:39:03.627Z,103.6
2019-04-25T12:40:06.377Z,103.6
2019-04-25T12:41:04.339Z,104.3
2019-04-25T12:42:04.632Z,104.5
2019-04-25T12:43:05.463Z,104
2019-04-25T12:44:03.862Z,104
2019-04-25T12:45:04.389Z,103.8
2019-04-25T12:46:02.963Z,102.6
2019-04-25T12:47:03.556Z,102.6
2019-04-25T12:48:04.335Z,103.1
2019-04-25T12:49:03.032Z,103.3
2019-04-25T12:50:04.261Z,101.5
2019-04-25T12:51:03.902Z,102.4
2019-04-25T12:52:02.901Z,102.4
2019-04-25T12:53:03.980Z,101.2
2019-04-25T12:54:04.128Z,101.9
2019-04-25T12:55:04.286Z,102.6
2019-04-25T12:56:04.576Z,102.2
2019-04-25T12:57:06.899Z,103.6
2019-04-25T12:58:03.835Z,105
2019-04-25T12:59:04.366Z,104.7
2019-04-25T13:00:04.440Z,103.8
2019-04-25T13:01:04.643Z,103.6
2019-04-25T13:02:04.834Z,102.2
2019-04-25T13:03:07.315Z,101.9
2019-04-25T13:04:05.447Z,101.9
2019-04-25T13:05:07.345Z,101
2019-04-25T13:06:03.374Z,102.4
2019-04-25T13:07:05.519Z,100.3
2019-04-25T13:08:05.105Z,101
2019-04-25T13:09:05.618Z,101.7
2019-04-25T13:10:03.118Z,100.5
2019-04-25T13:11:10.741Z,101
2019-04-25T13:12:04.575Z,100.3
2019-04-25T13:13:04.213Z,100.3
2019-04-25T13:14:03.081Z,101
2019-04-25T13:15:03.180Z,99.1
2019-04-25T13:16:04.594Z,101
2019-04-25T13:17:09.699Z,101.9
2019-04-25T13:18:03.780Z,101.9
2019-04-25T13:19:26.619Z,102.4
2019-04-25T13:21:03.775Z,102.2
2019-04-25T13:22:03.651Z,102.9
2019-04-25T13:23:06.034Z,105